createdAt,value
2023-07-23T00:01:19.302Z,15.63
2023-07-23T00:03:45.964Z,15.66
2023-07-23T00:06:12.558Z,15.60
2023-07-23T00:08:39.085Z,15.13
2023-07-23T00:11:05.808Z,15.11
2023-07-23T00:13:32.348Z,15.18
2023-07-23T00:15:59.291Z,15.09
2023-07-23T00:18:25.799Z,15.24
2023-07-23T00:20:52.353Z,15.27
2023-07-23T00:23:18.926Z,15.32
2023-07-23T00:25:45.521Z,15.20
2023-07-23T00:28:12.162Z,15.26
2023-07-23T00:30:38.672Z,15.34
2023-07-23T00:33:06.078Z,15.18
2023-07-23T00:35:32.675Z,15.13
2023-07-23T00:37:59.243Z,15.33
2023-07-23T00:40:25.791Z,15.27
2023-07-23T00:42:52.372Z,15.19
2023-07-23T00:45:20.718Z,15.14
2023-07-23T00:47:47.756Z,15.16
2023-07-23T00:50:15.659Z,15.16
2023-07-23T00:52:47.663Z,15.12
2023-07-23T00:55:21.119Z,15.09
2023-07-23T00:57:57.880Z,15.16
2023-07-23T01:00:27.526Z,15.07
2023-07-23T01:10:08.401Z,15.18
2023-07-23T01:12:57.975Z,15.07
2023-07-23T01:16:05.937Z,15.06
2023-07-23T01:18:33.528Z,15.07
2023-07-23T01:22:00.081Z,15.09
2023-07-23T01:24:47.200Z,15.21
2023-07-23T01:37:17.219Z,15.19
2023-07-23T01:43:15.694Z,15.21
2023-07-23T01:49:53.287Z,15.01
2023-07-23T01:56:29.721Z,15.16
2023-07-23T01:59:43.576Z,15.10
2023-07-23T02:03:01.872Z,15.11
2023-07-23T02:12:32.068Z,15.24
2023-07-23T02:15:23.448Z,15.22
2023-07-23T02:18:53.832Z,15.26
2023-07-23T02:23:55.371Z,15.22
2023-07-23T02:26:21.981Z,15.20
2023-07-23T02:28:48.727Z,15.17
2023-07-23T02:31:15.418Z,15.12
2023-07-23T02:33:42.220Z,15.18
2023-07-23T02:36:10.746Z,15.24
2023-07-23T02:38:37.374Z,15.27
2023-07-23T02:41:04.028Z,15.26
2023-07-23T02:43:30.520Z,15.30
2023-07-23T02:45:57.150Z,15.33
2023-07-23T02:48:23.768Z,15.23
2023-07-23T02:50:52.571Z,15.16
2023-07-23T02:53:19.630Z,15.16
2023-07-23T02:55:46.851Z,15.33
2023-07-23T02:58:13.512Z,15.20
2023-07-23T03:00:41.248Z,15.24
2023-07-23T03:03:09.266Z,15.39
2023-07-23T03:05:37.247Z,15.43
2023-07-23T03:08:04.754Z,15.34
2023-07-23T03:10:31.434Z,15.27
2023-07-23T03:12:58.047Z,15.26
2023-07-23T03:15:25.136Z,15.29
2023-07-23T03:17:52.438Z,15.32
2023-07-23T03:20:20.028Z,15.32
2023-07-23T03:22:46.535Z,15.40
2023-07-23T03:25:13.163Z,15.35
2023-07-23T03:27:39.689Z,15.32
2023-07-23T03:30:07.329Z,15.34
2023-07-23T03:32:34.086Z,15.28
2023-07-23T03:35:00.842Z,15.34
2023-07-23T03:37:27.468Z,15.45
2023-07-23T03:39:54.154Z,15.53
2023-07-23T03:42:21.363Z,15.46
2023-07-23T03:44:47.860Z,15.48
2023-07-23T03:47:18.708Z,15.44
2023-07-23T03:49:47.159Z,15.40
2023-07-23T03:52:14.133Z,15.50
2023-07-23T03:54:40.616Z,15.43
2023-07-23T03:57:07.542Z,15.40
2023-07-23T03:59:39.311Z,15.43
2023-07-23T04:02:06.616Z,15.44
2023-07-23T04:04:34.292Z,15.48
2023-07-23T04:07:01.181Z,15.57
2023-07-23T04:09:27.859Z,15.57
2023-07-23T04:11:54.908Z,15.55
2023-07-23T04:14:21.504Z,15.55
2023-07-23T04:16:49.040Z,15.65
2023-07-23T04:19:15.931Z,15.63
2023-07-23T04:21:42.746Z,15.61
2023-07-23T04:24:09.469Z,15.61
2023-07-23T04:26:36.064Z,15.58
2023-07-23T04:29:02.802Z,15.61
2023-07-23T04:31:29.828Z,15.67
2023-07-23T04:33:56.652Z,15.73
2023-07-23T04:36:23.380Z,15.71
2023-07-23T04:38:50.689Z,15.79
2023-07-23T04:41:17.386Z,15.80
2023-07-23T04:43:44.154Z,15.88
2023-07-23T04:46:11.323Z,15.76
2023-07-23T04:48:38.509Z,15.80
2023-07-23T04:51:08.355Z,15.87
2023-07-23T04:53:35.240Z,15.90
2023-07-23T04:56:04.169Z,15.89
2023-07-23T04:58:31.060Z,15.94
2023-07-23T05:00:59.918Z,15.95
2023-07-23T05:03:26.703Z,16.00
2023-07-23T05:05:56.018Z,15.91
2023-07-23T05:08:23.209Z,15.97
2023-07-23T05:10:50.973Z,15.92
2023-07-23T05:13:17.728Z,15.92
2023-07-23T05:15:44.229Z,15.92
2023-07-23T05:18:10.979Z,15.92
2023-07-23T05:20:37.625Z,15.93
2023-07-23T05:23:04.359Z,15.94
2023-07-23T05:25:30.852Z,15.98
2023-07-23T05:27:57.458Z,16.02
2023-07-23T05:30:24.834Z,16.05
2023-07-23T05:32:51.687Z,15.99
2023-07-23T05:35:18.830Z,16.05
2023-07-23T05:37:45.411Z,16.01
2023-07-23T05:40:12.224Z,16.08
2023-07-23T05:42:39.192Z,15.98
2023-07-23T05:45:06.510Z,15.93
2023-07-23T05:47:33.286Z,15.95
2023-07-23T05:49:59.919Z,15.97
2023-07-23T05:52:26.685Z,15.96
2023-07-23T05:54:53.265Z,15.86
2023-07-23T05:57:19.911Z,15.91
2023-07-23T05:59:46.397Z,15.82
2023-07-23T06:02:12.955Z,15.88
2023-07-23T06:04:40.647Z,15.82
2023-07-23T06:07:07.370Z,15.78
2023-07-23T06:09:34.059Z,15.84
2023-07-23T06:12:00.671Z,15.76
2023-07-23T06:14:27.340Z,15.76
2023-07-23T06:16:54.212Z,15.72
2023-07-23T06:19:21.131Z,15.75
2023-07-23T06:21:47.695Z,15.78
2023-07-23T06:24:14.357Z,15.78
2023-07-23T06:26:40.932Z,15.78
2023-07-23T06:29:07.599Z,15.90
2023-07-23T06:31:34.135Z,15.89
2023-07-23T06:34:00.657Z,15.89
2023-07-23T06:36:27.234Z,15.84
2023-07-23T06:38:53.701Z,15.83
2023-07-23T06:41:20.419Z,15.78
2023-07-23T06:43:47.276Z,15.72
2023-07-23T06:46:18.547Z,15.63
2023-07-23T06:48:45.413Z,15.69
2023-07-23T06:51:12.082Z,15.66
2023-07-23T06:53:38.769Z,15.60
2023-07-23T06:56:08.457Z,15.57
2023-07-23T06:58:36.814Z,15.53
2023-07-23T07:01:04.366Z,15.41
2023-07-23T07:03:31.030Z,15.31
2023-07-23T07:05:57.582Z,15.25
2023-07-23T07:08:24.170Z,15.36
2023-07-23T07:10:50.991Z,15.21
2023-07-23T07:13:17.737Z,15.24
2023-07-23T07:15:44.425Z,15.23
2023-07-23T07:18:10.944Z,15.31
2023-07-23T07:20:37.549Z,15.26
2023-07-23T07:23:04.092Z,15.26
2023-07-23T07:25:30.676Z,15.12
2023-07-23T07:27:57.160Z,15.08
2023-07-23T07:30:23.621Z,15.25
2023-07-23T07:32:53.156Z,15.20
2023-07-23T07:35:20.233Z,15.25
2023-07-23T07:37:47.261Z,15.13
2023-07-23T07:40:14.794Z,15.09
2023-07-23T07:42:41.823Z,15.06
2023-07-23T07:45:08.762Z,15.07
2023-07-23T07:47:35.335Z,15.13
2023-07-23T07:50:01.967Z,15.04
2023-07-23T07:52:28.473Z,15.15
2023-07-23T07:54:55.114Z,14.97
2023-07-23T07:57:22.974Z,15.03
2023-07-23T07:59:49.942Z,14.94
2023-07-23T08:02:17.284Z,15.06
2023-07-23T08:04:44.220Z,15.13
2023-07-23T08:07:11.780Z,15.17
2023-07-23T08:09:40.632Z,15.19
2023-07-23T08:12:08.507Z,15.18
2023-07-23T08:14:38.762Z,15.13
2023-07-23T08:17:05.679Z,15.21
2023-07-23T08:19:32.556Z,15.16
2023-07-23T08:21:59.354Z,15.13
2023-07-23T08:24:26.190Z,15.16
2023-07-23T08:26:58.357Z,15.25
2023-07-23T08:29:26.831Z,15.20
2023-07-23T08:31:55.962Z,15.15
2023-07-23T08:34:23.704Z,15.26
2023-07-23T08:36:50.640Z,15.31
2023-07-23T08:39:17.430Z,15.21
2023-07-23T08:42:17.813Z,15.19
2023-07-23T08:45:23.639Z,15.37
2023-07-23T08:48:12.893Z,15.36
2023-07-23T08:50:40.587Z,15.36
2023-07-23T08:53:11.640Z,15.41
2023-07-23T08:55:41.476Z,15.35
2023-07-23T08:58:09.071Z,15.51
2023-07-23T09:00:36.995Z,15.49
2023-07-23T09:03:05.895Z,15.59
2023-07-23T09:05:32.490Z,15.61
2023-07-23T09:08:00.462Z,15.71
2023-07-23T09:10:26.935Z,15.77
2023-07-23T09:12:53.418Z,15.87
2023-07-23T09:15:19.885Z,15.80
2023-07-23T09:17:52.838Z,15.73
2023-07-23T09:20:20.120Z,15.76
2023-07-23T09:22:47.402Z,15.84
2023-07-23T09:25:15.245Z,15.74
2023-07-23T09:27:43.466Z,15.85
2023-07-23T09:41:13.308Z,16.03
2023-07-23T09:43:41.101Z,16.02
2023-07-23T09:46:09.284Z,16.08
2023-07-23T09:48:35.919Z,16.01
2023-07-23T09:51:02.709Z,15.96
2023-07-23T09:53:30.210Z,16.10
2023-07-23T09:55:58.042Z,16.23
2023-07-23T09:58:28.061Z,16.13
2023-07-23T10:00:56.036Z,16.19
2023-07-23T10:03:23.034Z,16.27
2023-07-23T10:05:51.040Z,16.28
2023-07-23T10:08:21.094Z,16.23
2023-07-23T10:10:47.695Z,16.24
2023-07-23T10:13:14.300Z,16.18
2023-07-23T10:15:41.251Z,16.11
2023-07-23T10:18:08.830Z,16.10
2023-07-23T10:20:36.278Z,16.22
2023-07-23T10:23:06.823Z,16.18
2023-07-23T10:25:39.706Z,16.01
2023-07-23T10:28:10.175Z,16.03
2023-07-23T10:30:40.234Z,15.96
2023-07-23T10:33:13.366Z,15.85
2023-07-23T10:35:59.876Z,15.92
2023-07-23T10:38:36.458Z,15.84
2023-07-23T10:41:04.110Z,15.85
2023-07-23T10:43:50.122Z,15.91
2023-07-23T10:46:21.390Z,15.95
2023-07-23T10:48:49.733Z,15.89
2023-07-23T10:51:26.692Z,15.88
2023-07-23T10:54:03.601Z,16.01
2023-07-23T10:56:35.589Z,16.05
2023-07-23T10:59:07.362Z,16.03
2023-07-23T11:01:37.064Z,16.03
2023-07-23T11:04:35.748Z,16.11
2023-07-23T11:07:05.754Z,16.14
2023-07-23T11:09:34.576Z,16.13
2023-07-23T11:12:04.129Z,16.18
2023-07-23T11:14:31.437Z,16.36
2023-07-23T11:17:03.184Z,16.50
2023-07-23T11:19:31.306Z,16.55
2023-07-23T11:22:00.116Z,16.63
2023-07-23T11:24:28.481Z,16.74
2023-07-23T11:27:00.389Z,16.73
2023-07-23T11:29:29.039Z,17.33
2023-07-23T11:31:58.151Z,17.51
2023-07-23T11:34:25.607Z,17.12
2023-07-23T11:36:54.240Z,17.26
2023-07-23T11:39:25.123Z,17.19
2023-07-23T11:41:52.641Z,17.41
2023-07-23T11:44:19.197Z,17.67
2023-07-23T11:46:45.715Z,17.74
2023-07-23T11:49:14.401Z,17.64
2023-07-23T11:51:42.088Z,17.52
2023-07-23T11:54:10.880Z,17.36
2023-07-23T11:56:43.088Z,17.30
2023-07-23T11:59:12.250Z,17.47
2023-07-23T12:01:40.144Z,17.58
2023-07-23T12:04:08.029Z,17.95
2023-07-23T12:06:37.244Z,17.95
2023-07-23T12:09:12.732Z,18.10
2023-07-23T12:11:42.434Z,17.95
2023-07-23T12:14:09.556Z,18.19
2023-07-23T12:16:36.676Z,18.13
2023-07-23T12:19:08.897Z,18.23
2023-07-23T12:21:40.616Z,18.27
2023-07-23T12:24:13.333Z,18.44
2023-07-23T12:26:39.966Z,18.46
2023-07-23T12:29:06.918Z,18.13
2023-07-23T12:31:39.373Z,18.10
2023-07-23T12:34:05.876Z,18.14
2023-07-23T12:36:32.443Z,18.90
2023-07-23T12:38:59.147Z,19.64
2023-07-23T12:41:25.630Z,19.85
2023-07-23T12:43:52.116Z,19.68
2023-07-23T12:46:18.641Z,19.84
2023-07-23T12:48:47.724Z,21.18
2023-07-23T12:51:14.650Z,21.10
2023-07-23T12:53:41.141Z,20.54
2023-07-23T12:56:07.675Z,20.08
2023-07-23T12:58:34.256Z,19.91
2023-07-23T13:01:00.744Z,19.93
2023-07-23T13:03:27.280Z,19.90
2023-07-23T13:05:53.771Z,19.97
2023-07-23T13:08:20.264Z,19.79
2023-07-23T13:10:46.798Z,19.63
2023-07-23T13:13:13.271Z,19.71
2023-07-23T13:15:39.810Z,19.59
2023-07-23T13:18:06.667Z,20.24
2023-07-23T13:20:33.391Z,20.33
2023-07-23T13:23:01.138Z,20.13
2023-07-23T13:25:27.686Z,20.22
2023-07-23T13:27:54.121Z,20.67
2023-07-23T13:30:20.635Z,20.55
2023-07-23T13:32:47.155Z,20.54
2023-07-23T13:35:13.784Z,20.69
2023-07-23T13:37:40.301Z,21.52
2023-07-23T13:40:07.630Z,21.93
2023-07-23T13:42:34.269Z,22.03
2023-07-23T13:45:00.847Z,21.41
2023-07-23T13:47:27.367Z,20.77
2023-07-23T13:49:53.868Z,20.74
2023-07-23T13:52:24.442Z,20.59
2023-07-23T13:54:51.502Z,20.52
2023-07-23T13:57:18.024Z,20.41
2023-07-23T13:59:44.806Z,20.58
2023-07-23T14:02:11.420Z,20.60
2023-07-23T14:04:37.969Z,21.06
2023-07-23T14:07:04.648Z,21.60
2023-07-23T14:09:31.213Z,21.46
2023-07-23T14:11:57.838Z,21.05
2023-07-23T14:14:24.392Z,21.10
2023-07-23T14:16:50.883Z,21.17
2023-07-23T14:19:17.740Z,21.02
2023-07-23T14:21:44.322Z,20.87
2023-07-23T14:24:10.970Z,20.75
2023-07-23T14:26:37.490Z,20.70
2023-07-23T14:29:04.025Z,20.74
2023-07-23T14:31:30.636Z,20.76
2023-07-23T14:33:57.341Z,21.03
2023-07-23T14:36:23.882Z,21.42
2023-07-23T14:38:51.177Z,21.15
2023-07-23T14:41:17.998Z,21.13
2023-07-23T14:43:44.874Z,21.11
2023-07-23T14:46:11.400Z,21.30
2023-07-23T14:48:37.994Z,21.23
2023-07-23T14:51:04.470Z,21.14
2023-07-23T14:53:30.965Z,20.98
2023-07-23T14:55:57.517Z,21.16
2023-07-23T14:58:24.289Z,21.54
2023-07-23T15:00:50.812Z,21.44
2023-07-23T15:03:18.686Z,21.47
2023-07-23T15:05:45.772Z,21.36
2023-07-23T15:08:12.483Z,21.30
2023-07-23T15:10:39.104Z,21.11
2023-07-23T15:13:05.972Z,21.24
2023-07-23T15:15:33.397Z,21.18
2023-07-23T15:18:00.422Z,21.07
2023-07-23T15:20:27.409Z,20.97
2023-07-23T15:22:56.135Z,21.21
2023-07-23T15:25:23.674Z,21.53
2023-07-23T15:27:52.329Z,21.58
2023-07-23T15:30:19.307Z,21.44
2023-07-23T15:32:45.945Z,21.39
2023-07-23T15:35:12.499Z,21.27
2023-07-23T15:37:39.084Z,21.05
2023-07-23T15:40:06.234Z,21.11
2023-07-23T15:42:32.812Z,21.29
2023-07-23T15:44:59.290Z,21.24
2023-07-23T15:47:25.935Z,21.31
2023-07-23T15:49:52.528Z,21.34
2023-07-23T15:52:19.051Z,21.29
2023-07-23T15:54:45.661Z,21.18
2023-07-23T15:57:14.723Z,21.18
2023-07-23T15:59:41.178Z,21.20
2023-07-23T16:02:07.779Z,21.27
2023-07-23T16:04:37.988Z,21.27
2023-07-23T16:07:04.867Z,21.28
2023-07-23T16:09:31.334Z,21.32
2023-07-23T16:11:57.819Z,21.52
2023-07-23T16:14:24.310Z,21.67
2023-07-23T16:16:50.820Z,21.74
2023-07-23T16:19:17.324Z,21.56
2023-07-23T16:21:43.821Z,21.33
2023-07-23T16:24:10.819Z,21.22
2023-07-23T16:26:37.337Z,21.19
2023-07-23T16:29:03.862Z,21.08
2023-07-23T16:31:30.566Z,21.06
2023-07-23T16:33:57.540Z,20.96
2023-07-23T16:36:26.330Z,20.89
2023-07-23T16:38:53.577Z,20.79
2023-07-23T16:41:20.100Z,20.35
2023-07-23T16:43:50.552Z,19.67
2023-07-23T16:46:17.400Z,19.35
2023-07-23T16:48:43.949Z,19.42
2023-07-23T16:51:10.429Z,19.29
2023-07-23T16:53:36.917Z,19.36
2023-07-23T16:56:03.649Z,19.24
2023-07-23T16:58:30.277Z,19.25
2023-07-23T17:00:56.868Z,19.37
2023-07-23T17:03:23.779Z,19.35
2023-07-23T17:05:50.493Z,19.30
2023-07-23T17:08:17.057Z,19.31
2023-07-23T17:10:43.567Z,19.26
2023-07-23T17:13:12.911Z,19.26
2023-07-23T17:15:39.376Z,19.28
2023-07-23T17:18:05.982Z,19.31
2023-07-23T17:20:32.547Z,19.27
2023-07-23T17:22:59.180Z,19.26
2023-07-23T17:25:25.665Z,19.22
2023-07-23T17:27:52.147Z,19.17
2023-07-23T17:30:18.618Z,19.23
2023-07-23T17:32:45.242Z,19.17
2023-07-23T17:35:12.225Z,19.28
2023-07-23T17:37:41.778Z,19.28
2023-07-23T17:40:09.020Z,19.23
2023-07-23T17:42:35.739Z,19.18
2023-07-23T17:45:03.650Z,19.20
2023-07-23T17:47:30.608Z,19.20
2023-07-23T17:49:59.273Z,19.10
2023-07-23T17:52:27.132Z,19.18
2023-07-23T17:54:53.758Z,19.19
2023-07-23T17:57:20.237Z,19.15
2023-07-23T17:59:46.864Z,19.14
2023-07-23T18:02:13.451Z,19.10
2023-07-23T18:04:39.936Z,19.05
2023-07-23T18:07:06.573Z,19.11
2023-07-23T18:09:33.101Z,19.12
2023-07-23T18:11:59.695Z,19.13
2023-07-23T18:14:28.312Z,19.09
2023-07-23T18:16:54.956Z,19.12
2023-07-23T18:19:22.588Z,19.14
2023-07-23T18:21:49.115Z,19.13
2023-07-23T18:24:16.170Z,19.12
2023-07-23T18:26:42.822Z,19.14
2023-07-23T18:29:09.376Z,19.15
2023-07-23T18:31:36.813Z,19.11
2023-07-23T18:34:04.275Z,19.13
2023-07-23T18:36:31.068Z,19.09
2023-07-23T18:38:57.913Z,19.08
2023-07-23T18:41:35.067Z,19.06
2023-07-23T18:44:03.509Z,19.06
2023-07-23T18:46:30.361Z,19.02
2023-07-23T18:48:57.227Z,19.01
2023-07-23T18:51:27.151Z,18.99
2023-07-23T18:53:53.787Z,19.01
2023-07-23T18:56:20.333Z,19.02
2023-07-23T18:58:46.954Z,19.02
2023-07-23T19:01:13.628Z,18.97
2023-07-23T19:03:40.112Z,19.01
2023-07-23T19:06:10.141Z,18.98
2023-07-23T19:08:37.528Z,18.96
2023-07-23T19:11:04.042Z,18.96
2023-07-23T19:13:30.570Z,18.94
2023-07-23T19:15:57.191Z,18.93
2023-07-23T19:18:23.994Z,18.91
2023-07-23T19:20:51.086Z,18.92
2023-07-23T19:23:17.658Z,18.92
2023-07-23T19:25:44.124Z,18.89
2023-07-23T19:28:10.835Z,18.86
2023-07-23T19:30:39.566Z,18.84
2023-07-23T19:33:06.476Z,18.79
2023-07-23T19:35:33.031Z,18.78
2023-07-23T19:37:59.612Z,18.75
2023-07-23T19:40:26.129Z,18.70
2023-07-23T19:42:52.694Z,18.67
2023-07-23T19:45:19.210Z,18.65
2023-07-23T19:47:45.783Z,18.65
2023-07-23T19:50:12.338Z,18.59
2023-07-23T19:52:38.843Z,18.55
2023-07-23T19:55:06.539Z,18.55
2023-07-23T19:57:33.042Z,18.53
2023-07-23T20:00:01.177Z,18.53
2023-07-23T20:02:27.908Z,18.49
2023-07-23T20:04:54.578Z,18.43
2023-07-23T20:07:21.053Z,18.44
2023-07-23T20:09:48.194Z,18.42
2023-07-23T20:12:14.717Z,18.39
2023-07-23T20:14:41.905Z,18.40
2023-07-23T20:17:08.542Z,18.39
2023-07-23T20:19:35.425Z,18.39
2023-07-23T20:22:02.040Z,18.31
2023-07-23T20:24:28.598Z,18.30
2023-07-23T20:26:55.257Z,18.28
2023-07-23T20:29:22.338Z,18.25
2023-07-23T20:31:49.344Z,18.22
2023-07-23T20:34:16.123Z,18.17
2023-07-23T20:36:44.410Z,18.14
2023-07-23T20:39:11.141Z,18.09
2023-07-23T20:41:38.589Z,18.10
2023-07-23T20:44:05.384Z,18.07
2023-07-23T20:46:32.570Z,18.08
2023-07-23T20:48:59.531Z,18.04
2023-07-23T20:51:26.059Z,17.99
2023-07-23T20:53:52.950Z,17.95
2023-07-23T20:56:19.582Z,17.96
2023-07-23T20:58:46.065Z,17.89
2023-07-23T21:01:12.627Z,17.87
2023-07-23T21:03:39.344Z,17.87
2023-07-23T21:06:05.900Z,17.85
2023-07-23T21:08:32.396Z,17.86
2023-07-23T21:10:58.976Z,17.85
2023-07-23T21:13:25.455Z,17.84
2023-07-23T21:15:53.741Z,17.80
2023-07-23T21:18:21.866Z,17.77
2023-07-23T21:20:49.209Z,17.79
2023-07-23T21:23:17.447Z,17.78
2023-07-23T21:25:44.594Z,17.77
2023-07-23T21:28:11.101Z,17.80
2023-07-23T21:30:38.116Z,17.80
2023-07-23T21:33:04.606Z,17.80
2023-07-23T21:35:42.296Z,17.82
2023-07-23T21:38:10.096Z,17.81
2023-07-23T21:40:36.988Z,17.83
2023-07-23T21:43:03.653Z,17.82
2023-07-23T21:45:30.252Z,17.84
2023-07-23T21:47:56.944Z,17.85
2023-07-23T21:50:23.736Z,17.87
2023-07-23T21:52:50.439Z,17.89
2023-07-23T21:55:16.977Z,17.88
2023-07-23T21:57:43.637Z,17.90
2023-07-23T22:00:10.535Z,17.88
2023-07-23T22:02:37.143Z,17.93
2023-07-23T22:05:05.281Z,17.96
2023-07-23T22:07:32.255Z,18.01
2023-07-23T22:09:58.784Z,17.99
2023-07-23T22:12:25.447Z,18.00
2023-07-23T22:14:52.028Z,18.05
2023-07-23T22:17:18.510Z,18.01
2023-07-23T22:19:45.017Z,17.97
2023-07-23T22:22:11.612Z,17.99
2023-07-23T22:24:38.167Z,18.01
2023-07-23T22:27:04.923Z,17.96
2023-07-23T22:29:31.426Z,17.90
2023-07-23T22:31:58.046Z,17.95
2023-07-23T22:34:24.517Z,17.98
2023-07-23T22:36:51.010Z,17.94
2023-07-23T22:39:18.024Z,17.94
2023-07-23T22:41:44.618Z,17.94
2023-07-23T22:44:11.096Z,17.93
2023-07-23T22:46:38.636Z,17.91
2023-07-23T22:49:08.373Z,17.93
2023-07-23T22:51:36.041Z,17.94
2023-07-23T22:54:02.837Z,17.93
2023-07-23T22:56:29.531Z,17.92
2023-07-23T22:58:56.669Z,17.86
2023-07-23T23:01:23.435Z,17.85
2023-07-23T23:03:51.170Z,17.89
2023-07-23T23:06:17.758Z,17.88
2023-07-23T23:08:44.268Z,17.92
2023-07-23T23:11:10.772Z,17.88
2023-07-23T23:13:37.292Z,17.83
2023-07-23T23:16:04.001Z,17.82
2023-07-23T23:18:30.454Z,17.85
2023-07-23T23:20:57.054Z,17.82
2023-07-23T23:23:23.560Z,17.86
2023-07-23T23:25:50.878Z,17.82
2023-07-23T23:28:17.550Z,17.79
2023-07-23T23:30:44.089Z,17.85
2023-07-23T23:33:10.655Z,17.84
2023-07-23T23:35:37.149Z,17.86
2023-07-23T23:38:03.935Z,17.85
2023-07-23T23:40:30.412Z,17.88
2023-07-23T23:42:56.963Z,17.87
2023-07-23T23:45:24.448Z,17.89
2023-07-23T23:47:51.189Z,17.92
2023-07-23T23:50:17.836Z,17.87
2023-07-23T23:52:44.329Z,17.84
2023-07-23T23:55:10.783Z,17.86
2023-07-23T23:57:37.279Z,17.88
